Latest Weather Observations for Maningrida Airport

IDD60801

Issued at 4:01 am CST Monday 20 February 2017 (issued every 30 minutes, with the page automatically refreshed every 10 minutes)

About weather observations | Map of weather stations | Latest weather observations for NT | Other Formats
Station Details ID: 014405 Name: MANINGRIDA AIRPORT Lat: -12.06 Lon: 134.23 Height: 28.1 m
Data from the previous 72 hours. | See also: Recent months at Maningrida Airport
Date/Time
CST
Temp
°C
App
Temp
°C
Dew
Point
°C
Rel
Hum
%
Delta-T
°C
Wind Press
QNH
hPa
Press
MSL
hPa
Rain since
9am
mm
Dir  Spd
km/h
Gust
km/h
Spd
kts
Gust
kts
20/04:00am 24.4 28.6 23.4 94 0.7 WSW 7 9 4 5 1006.3 1006.1 10.6
20/03:30am 24.4 28.8 23.5 95 0.6 SSW 6 7 3 4 1006.0 1005.8 10.6
20/03:00am 24.4 29.6 23.5 95 0.6 SSW 2 7 1 4 1006.1 1005.9 10.6
20/02:30am 24.3 29.4 23.4 95 0.6 SSW 2 6 1 3 1006.2 1006.0 10.6
20/02:00am 24.3 28.7 23.4 95 0.6 SW 6 7 3 4 1006.2 1006.0 10.6
20/01:30am 24.3 28.7 23.4 95 0.6 WSW 6 11 3 6 1006.6 1006.4 10.6
20/01:00am 24.3 28.7 23.4 95 0.6 WSW 6 9 3 5 1006.9 1006.7 10.6
20/12:30am 24.4 28.7 23.7 96 0.5 SW 7 9 4 5 1007.1 1006.9 10.6
20/12:00am 24.4 28.9 23.7 96 0.5 SW 6 9 3 5 1006.7 1006.5 10.6
 
Date/Time
CST
Temp
°C
App
Temp
°C
Dew
Point
°C
Rel
Hum
%
Delta-T
°C
Wind Press
QNH
hPa
Press
MSL
hPa
Rain since
9am
mm
Dir  Spd
km/h
Gust
km/h
Spd
kts
Gust
kts
19/11:30pm 24.5 29.7 23.6 95 0.6 WNW 2 7 1 4 1007.6 1007.4 10.4
19/11:00pm 24.3 28.5 23.4 95 0.6 W 7 9 4 5 1007.8 1007.6 10.4
19/10:30pm 24.5 29.0 24.0 97 0.3 SSW 7 11 4 6 1006.9 1006.7 10.4
19/10:00pm 24.3 28.7 23.8 97 0.3 SSW 7 11 4 6 1007.0 1006.8 10.4
19/09:30pm 24.4 28.5 23.9 97 0.3 S 9 13 5 7 1006.5 1006.3 10.2
19/09:00pm 24.4 28.4 23.7 96 0.5 SW 9 15 5 8 1006.3 1006.1 10.2
19/08:30pm 24.4 28.4 23.7 96 0.5 SW 9 19 5 10 1006.5 1006.3 9.6
19/08:00pm 24.5 27.8 23.8 96 0.5 S 13 19 7 10 1006.1 1005.9 9.4
19/07:43pm 24.5 27.8 23.8 96 0.5 S 13 20 7 11 1005.8 1005.6 9.4
19/07:42pm 24.5 27.8 23.8 96 0.5 SSE 13 20 7 11 1005.8 1005.6 9.4
19/07:30pm 24.6 27.9 23.9 96 0.5 S 13 20 7 11 1005.7 1005.5 9.4
19/07:28pm 24.7 28.5 24.0 96 0.5 S 11 20 6 11 1005.7 1005.5 9.2
19/07:26pm 24.7 28.5 24.0 96 0.5 S 11 20 6 11 1005.7 1005.5 8.8
19/07:13pm 24.8 27.4 23.9 95 0.6 S 17 28 9 15 1006.0 1005.8 6.6
19/07:03pm 25.4 27.5 23.8 91 1.1 SSW 19 28 10 15 1006.0 1005.8 1.4
19/07:00pm 25.7 27.8 23.7 89 1.4 S 19 37 10 20 1006.0 1005.8 0.4
19/06:30pm 29.5 32.5 23.4 69 4.2 WSW 13 22 7 12 1004.8 1004.6 0.2
19/06:00pm 29.5 33.5 23.7 71 4.0 W 9 19 5 10 1004.4 1004.2 0.2
19/05:30pm 29.9 32.3 23.6 69 4.4 WNW 17 24 9 13 1003.5 1003.3 0.2
19/05:00pm 30.2 33.1 24.4 71 4.0 WNW 17 28 9 15 1003.5 1003.3 0.2
19/04:30pm 29.9 32.0 23.8 70 4.2 WNW 19 32 10 17 1003.4 1003.2 0.2
19/04:00pm 30.6 33.0 24.3 69 4.4 WNW 19 33 10 18 1003.5 1003.3 0.2
19/03:30pm 29.7 31.5 24.3 73 3.8 NW 22 35 12 19 1003.7 1003.5 0.2
19/03:00pm 30.3 32.9 24.0 69 4.4 NW 17 24 9 13 1004.2 1004.0 0.2
19/02:30pm 29.9 33.0 24.1 71 4.0 NW 15 24 8 13 1004.6 1004.4 0.2
19/02:00pm 30.1 32.4 23.5 67 4.6 WNW 17 30 9 16 1005.1 1004.9 0.2
19/01:30pm 29.6 31.8 23.3 69 4.3 W 17 26 9 14 1005.6 1005.4 0.2
19/01:00pm 30.0 33.0 24.6 73 3.8 W 17 33 9 18 1005.8 1005.6 0.2
19/12:30pm 29.3 31.7 23.0 69 4.3 W 15 30 8 16 1006.1 1005.9 0.2
19/12:00pm 29.4 32.6 24.3 74 3.6 WNW 15 28 8 15 1006.6 1006.4 0.2
19/11:30am 28.0 31.4 24.0 79 2.8 WNW 13 20 7 11 1007.4 1007.2 0.0
19/11:11am 27.8 31.3 24.2 81 2.5 WNW 13 20 7 11 1007.7 1007.5 0.0
19/11:00am 27.2 30.4 23.7 81 2.4 WNW 13 20 7 11 1007.8 1007.6 0.0
19/10:30am 26.3 29.7 23.4 84 2.0 WNW 11 19 6 10 1008.1 1007.9 0.0
19/10:00am 25.6 28.8 23.7 89 1.3 WNW 13 20 7 11 1008.5 1008.3 0.0
19/09:30am 25.2 28.2 23.4 90 1.2 W 13 28 7 15 1008.5 1008.3 0.0
19/09:00am 25.1 28.2 23.5 91 1.1 WNW 13 22 7 12 1008.4 1008.2 11.6
19/08:30am 24.3 26.9 22.6 90 1.1 WNW 13 19 7 10 1008.2 1008.0 11.6
19/08:00am 24.0 27.0 22.6 92 0.9 NW 11 19 6 10 1008.2 1008.0 11.6
19/07:44am 23.9 27.3 22.7 93 0.8 NW 9 13 5 7 1007.9 1007.7 11.6
19/07:30am 23.7 27.0 22.5 93 0.8 NW 9 11 5 6 1007.5 1007.3 11.6
19/07:00am 23.4 27.1 22.2 93 0.8 W 6 9 3 5 1006.9 1006.7 11.6
19/06:43am 23.3 26.8 22.1 93 0.8 W 7 13 4 7 1006.4 1006.2 11.6
19/06:30am 23.4 26.9 22.2 93 0.8 WNW 7 15 4 8 1006.1 1005.9 11.6
19/06:09am 23.3 26.4 22.1 93 0.8 WNW 9 17 5 9 1005.7 1005.5 11.4
19/06:00am 23.4 26.5 22.2 93 0.8 NW 9 15 5 8 1005.4 1005.2 11.4
19/05:38am 23.2 25.9 22.2 94 0.7 W 11 20 6 11 1005.0 1004.8 11.4
19/05:30am 23.1 25.4 22.1 94 0.7 W 13 22 7 12 1005.0 1004.8 11.4
19/05:22am 23.2 25.7 22.4 95 0.5 W 13 19 7 10 1005.0 1004.8 11.4
19/05:00am 23.3 26.2 22.5 95 0.5 W 11 20 6 11 1005.3 1005.1 11.4
19/04:30am 23.5 26.9 22.7 95 0.5 WSW 9 13 5 7 1005.3 1005.1 11.0
19/04:00am 23.7 26.1 22.3 92 0.9 WNW 13 19 7 10 1005.4 1005.2 11.0
19/03:30am 23.6 26.6 22.6 94 0.7 NW 11 15 6 8 1006.0 1005.8 10.8
19/03:00am 23.6 27.1 22.8 95 0.5 WNW 9 15 5 8 1005.7 1005.5 10.8
19/02:30am 23.7 27.0 23.2 97 0.3 NNW 11 13 6 7 1005.7 1005.5 10.8
19/02:00am 23.8 27.5 23.3 97 0.3 NNW 9 13 5 7 1006.6 1006.4 10.2
19/01:49am 23.9 28.6 23.4 97 0.3 WNW 4 7 2 4 1007.0 1006.8 10.0
19/01:48am 23.9 28.6 23.4 97 0.3 WNW 4 7 2 4 1007.0 1006.8 10.0
19/01:30am 23.7 26.5 23.0 96 0.5 SSW 13 20 7 11 1007.7 1007.5 9.2
19/01:12am 24.4 26.7 23.5 95 0.6 SSW 17 32 9 17 1008.2 1008.0 4.8
19/01:03am 25.1 27.9 23.7 92 1.0 SSW 15 24 8 13 1008.2 1008.0 1.4
19/01:00am 25.2 28.3 23.6 91 1.1 S 13 24 7 13 1008.2 1008.0 0.8
19/12:30am 26.9 30.4 21.9 74 3.4 WSW 6 11 3 6 1008.3 1008.1 0.0
19/12:00am 27.3 28.8 21.3 69 4.0 SW 15 28 8 15 1008.8 1008.6 0.0
 
Date/Time
CST
Temp
°C
App
Temp
°C
Dew
Point
°C
Rel
Hum
%
Delta-T
°C
Wind Press
QNH
hPa
Press
MSL
hPa
Rain since
9am
mm
Dir  Spd
km/h
Gust
km/h
Spd
kts
Gust
kts
18/11:30pm 28.1 30.9 23.0 74 3.5 W 13 22 7 12 1008.2 1008.0 0.0
18/11:00pm 28.3 32.0 24.5 80 2.6 WNW 13 19 7 10 1008.0 1007.8 0.0
18/10:30pm 28.3 32.0 25.1 83 2.2 NW 15 22 8 12 1007.4 1007.2 0.0
18/10:00pm 28.3 31.7 25.3 84 2.1 NW 17 26 9 14 1007.0 1006.8 0.0
18/09:30pm 28.4 31.5 25.4 84 2.1 NW 19 32 10 17 1007.3 1007.1 0.0
18/09:00pm 28.4 31.4 25.2 83 2.3 NW 19 24 10 13 1007.3 1007.1 0.0
18/08:30pm 28.4 31.2 25.0 82 2.4 NW 19 30 10 16 1006.9 1006.7 0.0
18/08:00pm 28.5 31.4 25.1 82 2.4 NW 19 30 10 16 1006.3 1006.1 0.0
18/07:30pm 28.6 30.9 25.0 81 2.5 NW 22 37 12 20 1005.9 1005.7 0.0
18/07:00pm 28.8 31.2 25.2 81 2.5 NW 22 32 12 17 1005.7 1005.5 0.0
18/06:30pm 29.1 31.8 25.1 79 2.8 NW 20 35 11 19 1005.6 1005.4 0.0
18/06:00pm 29.4 30.9 24.9 77 3.2 NNW 26 39 14 21 1005.4 1005.2 0.0
18/05:30pm 29.9 31.2 25.2 76 3.3 NNW 28 39 15 21 1005.3 1005.1 0.0
18/05:00pm 30.0 31.5 24.9 74 3.6 NNW 26 39 14 21 1005.3 1005.1 0.0
18/04:30pm 30.8 31.9 26.1 76 3.4 NNW 32 44 17 24 1005.2 1005.0 0.0
18/04:00pm 30.2 30.8 25.7 77 3.2 NNW 33 44 18 24 1005.4 1005.2 0.0
18/03:30pm 30.3 31.2 25.8 77 3.2 NNW 32 41 17 22 1005.7 1005.5 0.0
18/03:00pm 30.9 32.2 25.9 74 3.6 NNW 30 37 16 20 1005.9 1005.7 0.0
18/02:30pm 31.2 33.7 26.0 74 3.7 NNW 24 28 13 15 1006.4 1006.2 0.0
18/02:00pm 31.0 33.6 24.6 68 4.5 NNW 19 30 10 16 1006.8 1006.6 0.0
18/01:30pm 32.2 34.2 22.3 56 6.8 WNW 15 22 8 12 1007.2 1007.0 0.0
18/01:00pm 31.9 34.9 23.4 60 5.9 WNW 13 20 7 11 1007.6 1007.4 0.0
18/12:30pm 31.9 34.7 23.7 62 5.7 WNW 15 24 8 13 1008.0 1007.8 0.0
18/12:00pm 31.6 35.0 23.4 61 5.7 WNW 11 19 6 10 1008.2 1008.0 0.0
18/11:30am 30.9 34.2 23.8 66 4.9 WNW 13 22 7 12 1008.5 1008.3 0.0
18/11:00am 30.3 33.1 23.7 68 4.6 NW 15 28 8 15 1008.8 1008.6 0.0
18/10:30am 29.6 31.8 23.3 69 4.3 WNW 17 26 9 14 1009.1 1008.9 0.0
18/10:00am 29.2 31.9 23.4 71 4.0 WNW 15 24 8 13 1009.4 1009.2 0.0
18/09:30am 28.8 31.2 23.0 71 4.0 WNW 15 22 8 12 1009.4 1009.2 0.0
18/09:00am 27.8 29.7 22.7 74 3.5 WNW 17 26 9 14 1009.7 1009.5 0.0
18/08:30am 27.1 30.2 22.9 78 2.9 WNW 11 20 6 11 1009.6 1009.4 0.0
18/08:00am 25.8 28.8 22.7 83 2.1 WNW 11 20 6 11 1009.4 1009.2 0.0
18/07:30am 25.0 27.8 22.3 85 1.8 W 11 15 6 8 1009.2 1009.0 0.0
18/07:00am 24.7 27.9 22.4 87 1.5 W 9 15 5 8 1009.0 1008.8 0.0
18/06:30am 24.7 27.4 22.2 86 1.7 W 11 19 6 10 1008.6 1008.4 0.0
18/06:00am 24.6 28.2 22.3 87 1.5 WNW 7 11 4 6 1008.1 1007.9 0.0
18/05:30am 24.7 27.7 22.0 85 1.8 W 9 13 5 7 1007.7 1007.5 0.0
18/05:00am 25.1 28.1 22.0 83 2.1 W 9 17 5 9 1007.4 1007.2 0.0
18/04:30am 25.4 28.5 22.1 82 2.2 WSW 9 15 5 8 1007.2 1007.0 0.0
18/04:00am 25.8 28.7 22.5 82 2.2 WSW 11 20 6 11 1007.0 1006.8 0.0
18/03:30am 26.1 30.0 23.6 86 1.7 WSW 9 19 5 10 1007.0 1006.8 0.0
18/03:25am 26.2 29.8 23.7 86 1.7 WSW 11 20 6 11 1007.1 1006.9 0.0
18/03:00am 26.8 30.0 24.3 86 1.7 W 15 24 8 13 1007.3 1007.1 0.0
18/02:44am 27.2 30.8 24.3 84 2.0 WNW 13 24 7 13 1007.3 1007.1 0.0
18/02:30am 27.3 31.4 24.6 85 1.9 WNW 11 19 6 10 1007.4 1007.2 0.0
18/02:00am 27.4 31.5 24.5 84 2.0 NW 11 20 6 11 1007.9 1007.7 0.0
18/01:30am 27.3 31.0 24.6 85 1.9 NW 13 19 7 10 1008.3 1008.1 0.0
18/01:00am 27.1 31.4 24.2 84 2.0 NW 9 15 5 8 1008.7 1008.5 0.0
18/12:30am 27.0 31.1 23.9 83 2.1 NW 9 13 5 7 1009.2 1009.0 0.0
18/12:00am 27.0 31.5 23.9 83 2.1 W 7 11 4 6 1009.8 1009.6 0.0
 
Date/Time
CST
Temp
°C
App
Temp
°C
Dew
Point
°C
Rel
Hum
%
Delta-T
°C
Wind Press
QNH
hPa
Press
MSL
hPa
Rain since
9am
mm
Dir  Spd
km/h
Gust
km/h
Spd
kts
Gust
kts
17/11:30pm 27.0 31.1 23.9 83 2.1 NW 9 13 5 7 1009.3 1009.1 0.0
17/11:00pm 27.0 31.8 24.1 84 2.0 W 6 9 3 5 1009.2 1009.0 0.0
17/10:30pm 27.0 31.6 24.1 84 2.0 W 7 11 4 6 1009.3 1009.1 0.0
17/10:00pm 27.0 31.5 23.9 83 2.1 W 7 11 4 6 1009.2 1009.0 0.0
17/09:30pm 27.1 31.6 24.0 83 2.1 WSW 7 11 4 6 1009.2 1009.0 0.0
17/09:00pm 27.3 31.1 23.5 80 2.6 W 9 13 5 7 1008.8 1008.6 0.0
17/08:30pm 27.7 32.6 24.7 84 2.1 WNW 7 13 4 7 1008.1 1007.9 0.0
17/08:00pm 28.1 32.9 25.1 84 2.1 NW 9 17 5 9 1007.4 1007.2 0.0
17/07:30pm 28.1 32.0 24.9 83 2.2 NW 13 17 7 9 1007.2 1007.0 0.0
17/07:00pm 28.4 31.3 24.4 79 2.8 NW 17 22 9 12 1007.0 1006.8 0.0
17/06:30pm 28.7 31.6 24.5 78 2.9 NNW 17 20 9 11 1007.0 1006.8 0.0
17/06:00pm 29.7 31.7 23.9 71 4.0 NW 20 28 11 15 1007.1 1006.9 0.0
17/05:30pm 30.3 33.5 23.7 68 4.6 NNW 13 17 7 9 1006.7 1006.5 0.0
17/05:00pm 30.3 33.9 23.0 65 5.0 WNW 9 13 5 7 1007.0 1006.8 0.0
17/04:30pm 30.9 32.9 23.0 62 5.4 NW 17 24 9 13 1007.2 1007.0 0.0
17/04:00pm 30.4 33.8 24.1 69 4.4 NW 13 22 7 12 1007.3 1007.1 0.0
17/03:30pm 30.8 34.3 22.9 62 5.4 W 9 17 5 9 1007.7 1007.5 0.0
17/03:00pm 31.2 33.9 22.8 61 5.8 WNW 13 20 7 11 1007.7 1007.5 0.0
17/02:30pm 29.2 31.8 22.7 68 4.4 WSW 13 19 7 10 1008.2 1008.0 0.0
17/02:00pm 30.6 34.8 24.7 71 4.1 WSW 11 19 6 10 1008.3 1008.1 0.0
17/01:30pm 29.9 34.3 24.5 73 3.8 SW 9 15 5 8 1008.8 1008.6 0.0
17/01:00pm 28.8 33.3 24.6 78 2.9 SSE 9 11 5 6 1009.1 1008.9 0.0
17/12:30pm 28.7 32.6 24.3 77 3.1 S 11 17 6 9 1009.7 1009.5 0.0
17/12:00pm 29.9 33.3 23.3 67 4.5 SSW 11 17 6 9 1010.1 1009.9 0.0
17/11:30am 29.6 32.5 23.1 68 4.5 SSW 13 22 7 12 1010.4 1010.2 0.0
17/11:00am 29.9 33.0 23.6 69 4.4 SW 13 22 7 12 1010.4 1010.2 0.0
17/10:30am 28.9 31.9 23.3 72 3.8 WSW 13 24 7 13 1010.8 1010.6 0.0
17/10:00am 29.3 32.8 23.5 71 4.0 WSW 11 20 6 11 1010.9 1010.7 0.0
17/09:30am 29.3 32.7 24.0 73 3.7 WSW 13 24 7 13 1010.8 1010.6 0.0
17/09:00am 28.7 31.7 23.4 73 3.6 WSW 13 28 7 15 1010.7 1010.5 0.4
17/08:30am 27.6 30.7 23.6 79 2.7 WSW 13 26 7 14 1010.3 1010.1 0.4
17/08:00am 26.2 29.2 23.3 84 2.0 WSW 13 24 7 13 1009.3 1009.1 0.4
17/07:30am 25.8 28.8 23.3 86 1.7 WSW 13 20 7 11 1008.6 1008.4 0.4
17/07:00am 25.3 28.5 23.0 87 1.6 W 11 19 6 10 1008.3 1008.1 0.4
17/06:30am 25.1 27.7 22.6 86 1.7 W 13 20 7 11 1008.1 1007.9 0.4
17/06:00am 25.2 28.5 22.5 85 1.8 W 9 15 5 8 1007.8 1007.6 0.4
17/05:30am 24.9 28.0 22.2 85 1.8 W 9 17 5 9 1007.4 1007.2 0.4
17/05:00am 24.4 28.0 22.3 88 1.4 W 7 11 4 6 1007.2 1007.0 0.4
17/04:30am 24.4 27.7 22.5 89 1.3 W 9 17 5 9 1007.0 1006.8 0.4

Other Formats:

Comma delimited format used in spreadsheet applications
http://www.bom.gov.au/fwo/IDD60801/IDD60801.95142.axf

JavaScript Object Notation format (JSON) in row-major order
http://www.bom.gov.au/fwo/IDD60801/IDD60801.95142.json